Etusivu
METAR-TAF:

METAR-TAF

Lentoasemat :

Julius Nyereren kansainvälinen lentoasema

Dar es Salaam, Tansania

Leveyspiiri: 06-52S, Pituuspiiri: 039-12E, korkeus merenpinnasta: 55 m

Tämänhetkinen sää

Tämä raportti tehtiin 1 tunti ja 36 minuuttia sitten, kello 23.00 UTC
tyyntä
Lämpötila 27°C
Kosteus 89%
Ilmanpaine 1011 hPa
Näkyvyys 10 km tai enemmän
Muutamia pilviä 1300 ft:n korkeudessa

METAR: HTDA 182300Z 00000KT 9999 FEW013 27/25 Q1011 NOSIG

Aika: 03:36 (00:36 UTC)

Sääennuste

Tämä raportti tehtiin 1 tunti ja 36 minuuttia sitten, kello 23.00 UTC
Ennuste voimassa 19. päivästä klo 00 UTC - 20. päivään klo 06 UTC
Tuuli kn pohjoisesta
Näkyvyys 10 km tai enemmän
Hajanaisia pilviä 1500 ft:n korkeudessa
Tulossa
19. päivästä klo 06 UTC - 19. päivään klo 09 UTC
Tuuli 10 kn pohjoisesta/koillisesta
Hajonneita pilviä 2000 ft:n korkeudessa

TAF: HTDA 182300Z 1900/2006 00000KT 9999 SCT015 BECMG 1906/1909 03010KT BKN020

Säähavainnot ja -ennusteet yli 4000 lentoasemalta (METAR- ja TAF-raportit).

Käytössä olevat sääasemat on merkitty karttaan keltaisilla ja punaisilla pisteillä.

Aseta hiiri pisteen päälle nähdäksesi sääaseman nimen.

Klikkaa sitten nähdäksesi säähavainnot ja -ennusteet.

Kartan vaihtaminen: klikkaa mustalla rastilla varustettuja vihreitä pisteitä, niin voit zoomata sisään; viivalla varustettua vihreää pistettä, niin voit zoomata ulos tai vihreitä nuolia, niin pääset viereisille kartoille.


METAR-TAF: